Главная страница
METAR-TAF:

METAR-TAF

Аэропорты :

Кувейт, Кувейт

широта: 29-13N, долгота: 047-59E, высота над уровнем моря: 55 м

Текущие метеонаблюдения

Эта сводка был подготовлена 40 минут назад, в 15:00 UTC
Ветер 13 Узел от северно-северо-западный
Температура 44°C
Влажность 10%
Давление 997 hPa
Видимость 10 км и более
Нет облачности ниже 1500 м, и нет кучево-дождевой облачности

METAR: OKBK 191500Z 34013KT CAVOK 44/05 Q0997 NOSIG

Время: 18:40 (15:40 UTC)

Прогноз

Эта сводка был подготовлена 4 часа и 55 минут назад, в 10:45 UTC
Прогноз действительный с 19-го 12 UTC до 20-го 18 UTC
Ветер 10 Узел от северный с порывами до 20 Узел
Видимость: 7000 м
ясное небо
временами
С 19-го 12 UTC до 19-го 16 UTC
Видимость: 2500 м
Низовая пыльная метель

TAF: OKBK 191045Z 1912/2018 35010G20KT 7000 SKC TEMPO 1912/1916 2500 BLDU

Метеонаблюдения и прогнозы для более 4000 аэропортов (сводки METAR и TAF).

Имеющиеся станции представлены на карте желтыми и красными точками.

Чтобы увидеть название станции, наведите на нее мышь.

Затем щелкните, чтобы увидеть метеонаблюдения и метеопрогнозы.

Управление картой: чтобы увеличить масштаб, щелкните зеленые кнопки с черным крестиком; чтобы уменьшить масштаб, щелкните зеленую кнопку с тире; для просмотра соседних карт щелкайте зеленые стрелки.


METAR-TAF: